createdAt,value
2016-10-18T00:00:07.959Z,48.25
2016-10-18T00:00:48.675Z,48.05
2016-10-18T00:01:29.373Z,47.66
2016-10-18T00:02:10.072Z,47.57
2016-10-18T00:02:50.736Z,48.25
2016-10-18T00:03:31.437Z,48.15
2016-10-18T00:04:12.141Z,48.15
2016-10-18T00:04:53.364Z,47.86
2016-10-18T00:05:33.543Z,48.35
2016-10-18T00:06:14.198Z,47.47
2016-10-18T00:06:54.907Z,47.66
2016-10-18T00:07:35.602Z,48.25
2016-10-18T00:08:16.317Z,48.15
2016-10-18T00:08:56.991Z,48.05
2016-10-18T00:09:37.688Z,48.25
2016-10-18T00:10:18.364Z,47.66
2016-10-18T00:10:59.050Z,47.66
2016-10-18T00:11:39.778Z,47.57
2016-10-18T00:12:20.536Z,48.15
2016-10-18T00:13:01.179Z,48.15
2016-10-18T00:13:41.862Z,47.76
2016-10-18T00:14:22.571Z,48.35
2016-10-18T00:15:03.311Z,47.66
2016-10-18T00:15:43.980Z,48.35
2016-10-18T00:16:24.649Z,48.35
2016-10-18T00:17:05.281Z,48.15
2016-10-18T00:17:46.018Z,48.05
2016-10-18T00:18:26.679Z,47.47
2016-10-18T00:19:07.389Z,48.05
2016-10-18T00:19:48.093Z,48.15
2016-10-18T00:20:28.831Z,48.05
2016-10-18T00:21:09.528Z,48.05
2016-10-18T00:21:50.222Z,47.76
2016-10-18T00:22:30.860Z,48.05
2016-10-18T00:23:11.567Z,48.05
2016-10-18T00:23:52.237Z,48.05
2016-10-18T00:24:32.867Z,48.05
2016-10-18T00:25:13.561Z,48.25
2016-10-18T00:25:54.253Z,48.05
2016-10-18T00:26:34.977Z,48.15
2016-10-18T00:27:15.693Z,47.96
2016-10-18T00:27:56.401Z,47.57
2016-10-18T00:28:37.076Z,48.05
2016-10-18T00:29:17.786Z,47.86
2016-10-18T00:29:58.489Z,47.96
2016-10-18T00:30:39.196Z,48.05
2016-10-18T00:31:19.886Z,48.05
2016-10-18T00:32:00.569Z,47.96
2016-10-18T00:32:41.221Z,48.05
2016-10-18T00:33:21.893Z,48.15
2016-10-18T00:34:02.570Z,48.05
2016-10-18T00:34:43.262Z,48.05
2016-10-18T00:35:24.011Z,47.96
2016-10-18T00:36:04.689Z,47.96
2016-10-18T00:36:45.374Z,48.05
2016-10-18T00:37:26.091Z,47.96
2016-10-18T00:38:06.777Z,48.15
2016-10-18T00:38:47.525Z,48.25
2016-10-18T00:39:28.251Z,47.96
2016-10-18T00:40:08.920Z,48.15
2016-10-18T00:40:49.577Z,48.15
2016-10-18T00:41:30.302Z,48.15
2016-10-18T00:42:11.015Z,47.86
2016-10-18T00:42:51.701Z,47.96
2016-10-18T00:43:32.397Z,48.15
2016-10-18T00:44:13.038Z,48.25
2016-10-18T00:44:53.728Z,47.96
2016-10-18T00:45:34.396Z,47.86
2016-10-18T00:46:15.073Z,48.25
2016-10-18T00:46:55.762Z,48.25
2016-10-18T00:47:36.447Z,48.05
2016-10-18T00:48:17.109Z,48.15
2016-10-18T00:48:57.797Z,48.15
2016-10-18T00:49:38.502Z,48.05
2016-10-18T00:50:19.174Z,48.05
2016-10-18T00:50:59.903Z,48.05
2016-10-18T00:51:40.603Z,48.25
2016-10-18T00:52:21.244Z,48.15
2016-10-18T00:53:01.943Z,48.05
2016-10-18T00:53:42.606Z,48.05
2016-10-18T00:54:23.268Z,48.05
2016-10-18T00:55:03.969Z,47.96
2016-10-18T00:55:44.657Z,47.76
2016-10-18T00:56:25.330Z,47.76
2016-10-18T00:57:06.034Z,48.15
2016-10-18T00:57:46.764Z,48.05
2016-10-18T00:58:27.401Z,48.15
2016-10-18T00:59:08.101Z,48.25
2016-10-18T00:59:48.797Z,48.05
2016-10-18T01:00:29.482Z,48.03
2016-10-18T01:01:10.174Z,48.15
2016-10-18T01:01:50.949Z,47.86
2016-10-18T01:02:31.621Z,47.96
2016-10-18T01:03:12.274Z,48.05
2016-10-18T01:03:52.948Z,48.05
2016-10-18T01:04:33.677Z,48.15
2016-10-18T01:05:14.386Z,48.15
2016-10-18T01:05:55.048Z,48.05
2016-10-18T01:06:35.748Z,48.15
2016-10-18T01:07:16.464Z,48.15
2016-10-18T01:07:57.109Z,47.96
2016-10-18T01:08:37.802Z,47.96
2016-10-18T01:09:18.523Z,47.96
2016-10-18T01:09:59.242Z,48.03
2016-10-18T01:10:39.923Z,47.86
2016-10-18T01:11:20.631Z,47.96
2016-10-18T01:12:01.298Z,47.66
2016-10-18T01:12:42.011Z,47.96
2016-10-18T01:13:22.727Z,48.15
2016-10-18T01:14:03.464Z,47.74
2016-10-18T01:14:44.167Z,48.05
2016-10-18T01:15:24.885Z,48.05
2016-10-18T01:16:05.582Z,48.05
2016-10-18T01:16:46.275Z,47.96
2016-10-18T01:17:26.932Z,47.86
2016-10-18T01:18:07.625Z,47.93
2016-10-18T01:18:48.314Z,47.83
2016-10-18T01:19:29.019Z,48.15
2016-10-18T01:20:09.664Z,48.15
2016-10-18T01:20:50.329Z,48.15
2016-10-18T01:21:30.983Z,48.25
2016-10-18T01:22:11.717Z,47.76
2016-10-18T01:22:52.418Z,47.76
2016-10-18T01:23:33.103Z,48.35
2016-10-18T01:24:13.809Z,48.25
2016-10-18T01:24:54.536Z,47.76
2016-10-18T01:25:35.228Z,47.86
2016-10-18T01:26:15.907Z,48.03
2016-10-18T01:26:56.610Z,47.74
2016-10-18T01:27:37.304Z,47.96
2016-10-18T01:28:18.005Z,48.35
2016-10-18T01:28:58.700Z,48.05
2016-10-18T01:29:39.323Z,48.15
2016-10-18T01:30:19.998Z,48.35
2016-10-18T01:31:00.737Z,47.96
2016-10-18T01:31:41.383Z,47.76
2016-10-18T01:32:22.088Z,47.96
2016-10-18T01:33:02.799Z,47.76
2016-10-18T01:33:43.475Z,47.96
2016-10-18T01:34:24.167Z,47.96
2016-10-18T01:35:04.873Z,48.05
2016-10-18T01:35:45.580Z,48.05
2016-10-18T01:36:26.289Z,48.05
2016-10-18T01:37:06.968Z,47.76
2016-10-18T01:37:47.650Z,48.13
2016-10-18T01:38:28.317Z,48.05
2016-10-18T01:39:08.989Z,47.86
2016-10-18T01:39:49.643Z,48.15
2016-10-18T01:40:30.350Z,47.76
2016-10-18T01:41:10.982Z,48.03
2016-10-18T01:41:51.680Z,47.66
2016-10-18T01:42:32.360Z,47.76
2016-10-18T01:43:13.043Z,48.15
2016-10-18T01:43:53.710Z,47.66
2016-10-18T01:44:34.359Z,47.86
2016-10-18T01:45:15.066Z,47.86
2016-10-18T01:45:55.782Z,48.35
2016-10-18T01:46:36.469Z,48.05
2016-10-18T01:47:17.188Z,48.05
2016-10-18T01:47:57.870Z,48.05
2016-10-18T01:48:38.536Z,47.86
2016-10-18T01:49:19.278Z,47.76
2016-10-18T01:49:59.990Z,47.96
2016-10-18T01:50:40.689Z,47.76
2016-10-18T01:51:21.426Z,47.93
2016-10-18T01:52:02.125Z,47.96
2016-10-18T01:52:42.802Z,48.05
2016-10-18T01:53:23.504Z,47.74
2016-10-18T01:54:04.201Z,47.83
2016-10-18T01:54:44.868Z,48.05
2016-10-18T01:55:25.614Z,48.25
2016-10-18T01:56:06.341Z,47.93
2016-10-18T01:56:47.013Z,47.96
2016-10-18T01:57:27.715Z,47.96
2016-10-18T01:58:08.407Z,47.96
2016-10-18T01:58:49.111Z,48.15
2016-10-18T01:59:29.808Z,47.76
2016-10-18T02:00:10.473Z,48.44
2016-10-18T02:00:51.219Z,48.05
2016-10-18T02:01:31.922Z,48.15
2016-10-18T02:02:12.628Z,48.15
2016-10-18T02:02:53.279Z,47.86
2016-10-18T02:03:33.971Z,48.05
2016-10-18T02:04:14.633Z,48.15
2016-10-18T02:04:55.362Z,48.13
2016-10-18T02:05:36.040Z,47.76
2016-10-18T02:06:16.737Z,48.15
2016-10-18T02:06:57.440Z,47.76
2016-10-18T02:07:38.101Z,47.96
2016-10-18T02:08:18.785Z,48.15
2016-10-18T02:08:59.488Z,48.05
2016-10-18T02:09:40.124Z,47.96
2016-10-18T02:10:20.807Z,48.05
2016-10-18T02:11:01.460Z,48.03
2016-10-18T02:11:42.151Z,48.03
2016-10-18T02:12:22.877Z,48.25
2016-10-18T02:13:03.605Z,48.35
2016-10-18T02:13:44.312Z,48.05
2016-10-18T02:14:24.970Z,48.25
2016-10-18T02:15:05.671Z,48.15
2016-10-18T02:15:46.343Z,48.15
2016-10-18T02:16:26.991Z,48.05
2016-10-18T02:17:07.690Z,48.35
2016-10-18T02:17:48.408Z,47.96
2016-10-18T02:18:29.049Z,48.15
2016-10-18T02:19:09.721Z,48.15
2016-10-18T02:19:50.454Z,48.25
2016-10-18T02:20:31.148Z,48.22
2016-10-18T02:21:11.860Z,48.05
2016-10-18T02:21:52.524Z,48.32
2016-10-18T02:22:33.217Z,48.05
2016-10-18T02:23:13.841Z,48.44
2016-10-18T02:23:54.522Z,48.25
2016-10-18T02:24:35.256Z,48.15
2016-10-18T02:25:15.936Z,48.35
2016-10-18T02:25:56.578Z,47.96
2016-10-18T02:26:37.287Z,48.25
2016-10-18T02:27:17.975Z,48.35
2016-10-18T02:27:58.627Z,48.15
2016-10-18T02:28:39.379Z,48.22
2016-10-18T02:29:20.027Z,48.35
2016-10-18T02:30:00.771Z,48.03
2016-10-18T02:30:41.466Z,48.32
2016-10-18T02:31:22.164Z,48.15
2016-10-18T02:32:02.868Z,48.15
2016-10-18T02:32:43.589Z,48.35
2016-10-18T02:33:24.242Z,48.25
2016-10-18T02:34:04.883Z,48.54
2016-10-18T02:34:45.645Z,48.25
2016-10-18T02:35:26.358Z,48.25
2016-10-18T02:36:07.011Z,48.54
2016-10-18T02:36:47.730Z,48.22
2016-10-18T02:37:28.408Z,48.25
2016-10-18T02:38:09.085Z,48.54
2016-10-18T02:38:49.821Z,48.15
2016-10-18T02:39:30.487Z,48.25
2016-10-18T02:40:11.140Z,48.32
2016-10-18T02:40:51.835Z,48.13
2016-10-18T02:41:32.545Z,48.52
2016-10-18T02:42:13.189Z,48.25
2016-10-18T02:42:53.858Z,48.25
2016-10-18T02:43:34.542Z,48.32
2016-10-18T02:44:15.255Z,48.22
2016-10-18T02:44:55.960Z,48.61
2016-10-18T02:45:36.707Z,48.25
2016-10-18T02:46:17.386Z,48.22
2016-10-18T02:46:58.073Z,48.13
2016-10-18T02:47:38.775Z,48.13
2016-10-18T02:48:19.418Z,48.22
2016-10-18T02:49:00.135Z,48.22
2016-10-18T02:49:40.870Z,48.54
2016-10-18T02:50:21.575Z,48.61
2016-10-18T02:51:02.250Z,48.44
2016-10-18T02:51:42.956Z,48.52
2016-10-18T02:52:23.654Z,48.32
2016-10-18T02:53:04.317Z,48.54
2016-10-18T02:53:45.021Z,48.25
2016-10-18T02:54:25.731Z,48.25
2016-10-18T02:55:06.397Z,48.52
2016-10-18T02:55:47.091Z,48.42
2016-10-18T02:56:27.803Z,48.42
2016-10-18T02:57:08.459Z,48.54
2016-10-18T02:57:49.205Z,48.44
2016-10-18T02:58:29.911Z,48.73
2016-10-18T02:59:10.612Z,48.15
2016-10-18T02:59:51.300Z,48.54
2016-10-18T03:00:32.000Z,48.61
2016-10-18T03:01:12.672Z,48.64
2016-10-18T03:01:53.371Z,48.42
2016-10-18T03:02:34.086Z,48.22
2016-10-18T03:03:14.750Z,48.54
2016-10-18T03:03:55.483Z,48.64
2016-10-18T03:04:36.187Z,48.44
2016-10-18T03:05:16.889Z,48.83
2016-10-18T03:05:57.562Z,48.44
2016-10-18T03:06:38.245Z,48.25
2016-10-18T03:07:18.921Z,48.52
2016-10-18T03:07:59.608Z,48.32
2016-10-18T03:08:40.295Z,48.52
2016-10-18T03:09:20.990Z,48.54
2016-10-18T03:10:01.658Z,48.71
2016-10-18T03:10:42.376Z,48.35
2016-10-18T03:11:23.046Z,48.64
2016-10-18T03:12:03.785Z,48.22
2016-10-18T03:12:44.455Z,48.73
2016-10-18T03:13:25.157Z,48.61
2016-10-18T03:14:05.869Z,48.52
2016-10-18T03:14:46.553Z,48.52
2016-10-18T03:15:27.242Z,48.71
2016-10-18T03:16:07.958Z,48.52
2016-10-18T03:16:48.626Z,48.61
2016-10-18T03:17:29.249Z,48.83
2016-10-18T03:18:09.935Z,48.83
2016-10-18T03:18:50.641Z,48.54
2016-10-18T03:19:31.336Z,48.8
2016-10-18T03:20:12.045Z,48.71
2016-10-18T03:20:52.726Z,48.64
2016-10-18T03:21:33.418Z,48.42
2016-10-18T03:22:14.103Z,48.54
2016-10-18T03:22:54.795Z,48.71
2016-10-18T03:23:35.496Z,48.71
2016-10-18T03:24:16.243Z,48.73
2016-10-18T03:24:56.923Z,48.64
2016-10-18T03:25:37.609Z,48.42
2016-10-18T03:26:18.248Z,48.42
2016-10-18T03:26:58.902Z,48.44
2016-10-18T03:27:39.609Z,48.52
2016-10-18T03:28:20.312Z,48.42
2016-10-18T03:29:00.991Z,48.42
2016-10-18T03:29:41.696Z,48.42
2016-10-18T03:30:22.394Z,48.44
2016-10-18T03:31:03.058Z,48.52
2016-10-18T03:31:43.800Z,48.71
2016-10-18T03:32:24.494Z,48.71
2016-10-18T03:33:05.183Z,48.32
2016-10-18T03:33:45.846Z,48.61
2016-10-18T03:34:26.511Z,48.61
2016-10-18T03:35:07.257Z,48.61
2016-10-18T03:35:47.940Z,48.9
2016-10-18T03:36:28.627Z,48.52
2016-10-18T03:37:09.373Z,48.42
2016-10-18T03:37:50.028Z,49
2016-10-18T03:38:30.748Z,48.61
2016-10-18T03:39:11.467Z,49
2016-10-18T03:39:52.127Z,48.8
2016-10-18T03:40:32.821Z,48.52
2016-10-18T03:41:13.532Z,49
2016-10-18T03:41:54.194Z,48.9
2016-10-18T03:42:34.890Z,48.71
2016-10-18T03:43:15.570Z,48.71
2016-10-18T03:43:56.274Z,48.42
2016-10-18T03:44:36.943Z,49.1
2016-10-18T03:45:17.579Z,49
2016-10-18T03:45:58.320Z,48.71
2016-10-18T03:46:38.999Z,48.71
2016-10-18T03:47:19.713Z,48.61
2016-10-18T03:48:00.353Z,49
2016-10-18T03:48:40.985Z,49
2016-10-18T03:49:21.664Z,48.52
2016-10-18T03:50:02.364Z,48.9
2016-10-18T03:50:43.041Z,49.1
2016-10-18T03:51:23.679Z,48.71
2016-10-18T03:52:04.380Z,49.1
2016-10-18T03:52:45.090Z,48.9
2016-10-18T03:53:25.771Z,48.9
2016-10-18T03:54:06.457Z,48.9
2016-10-18T03:54:47.155Z,49
2016-10-18T03:55:27.829Z,49.1
2016-10-18T03:56:08.532Z,49
2016-10-18T03:56:49.255Z,48.9
2016-10-18T03:57:29.932Z,49
2016-10-18T03:58:10.607Z,49.1
2016-10-18T03:58:51.303Z,49
2016-10-18T03:59:32.018Z,48.9
2016-10-18T04:00:12.735Z,48.71
2016-10-18T04:00:53.412Z,48.8
2016-10-18T04:01:34.141Z,48.71
2016-10-18T04:02:14.810Z,49
2016-10-18T04:02:55.516Z,49.1
2016-10-18T04:03:36.225Z,49.1
2016-10-18T04:04:16.924Z,48.8
2016-10-18T04:04:57.614Z,49.19
2016-10-18T04:05:38.315Z,48.71
2016-10-18T04:06:18.997Z,49
2016-10-18T04:06:59.697Z,48.8
2016-10-18T04:07:40.368Z,48.8
2016-10-18T04:08:21.042Z,48.8
2016-10-18T04:09:01.747Z,48.8
2016-10-18T04:09:42.408Z,49.1
2016-10-18T04:10:23.092Z,48.9
2016-10-18T04:11:03.805Z,49
2016-10-18T04:11:44.448Z,49
2016-10-18T04:12:25.136Z,49.1
2016-10-18T04:13:05.767Z,49
2016-10-18T04:13:46.487Z,48.8
2016-10-18T04:14:27.182Z,49.1
2016-10-18T04:15:07.868Z,49
2016-10-18T04:15:48.564Z,48.9
2016-10-18T04:16:29.249Z,49.19
2016-10-18T04:17:09.921Z,49.1
2016-10-18T04:17:50.564Z,49.1
2016-10-18T04:18:31.251Z,48.8
2016-10-18T04:19:11.956Z,48.8
2016-10-18T04:19:52.651Z,48.9
2016-10-18T04:20:33.342Z,49
2016-10-18T04:21:14.028Z,48.9
2016-10-18T04:21:54.720Z,48.8
2016-10-18T04:22:35.400Z,49.39
2016-10-18T04:23:16.124Z,49.19
2016-10-18T04:23:56.831Z,48.9
2016-10-18T04:24:37.509Z,49.1
2016-10-18T04:25:18.175Z,49.29
2016-10-18T04:25:58.892Z,49.1
2016-10-18T04:26:39.577Z,49.39
2016-10-18T04:27:20.261Z,49.29
2016-10-18T04:28:00.968Z,49.1
2016-10-18T04:28:41.678Z,49.1
2016-10-18T04:29:22.361Z,49.19
2016-10-18T04:30:03.094Z,49.19
2016-10-18T04:30:43.749Z,49.19
2016-10-18T04:31:24.456Z,49.29
2016-10-18T04:32:05.085Z,49
2016-10-18T04:32:45.760Z,49.39
2016-10-18T04:33:26.427Z,48.9
2016-10-18T04:34:07.090Z,49.39
2016-10-18T04:34:47.796Z,49.19
2016-10-18T04:35:28.500Z,49.29
2016-10-18T04:36:09.171Z,49.29
2016-10-18T04:36:49.837Z,49.29
2016-10-18T04:37:30.585Z,49.19
2016-10-18T04:38:11.263Z,49.39
2016-10-18T04:38:51.951Z,49.39
2016-10-18T04:39:32.659Z,49.49
2016-10-18T04:40:13.331Z,49.19
2016-10-18T04:40:53.993Z,49.49
2016-10-18T04:41:34.704Z,49.49
2016-10-18T04:42:15.386Z,49.29
2016-10-18T04:42:56.081Z,49.39
2016-10-18T04:43:36.744Z,49.29
2016-10-18T04:44:17.479Z,49.39
2016-10-18T04:44:58.111Z,49.49
2016-10-18T04:45:38.775Z,49.39
2016-10-18T04:46:19.449Z,49
2016-10-18T04:47:00.154Z,49.58
2016-10-18T04:47:40.865Z,49.49
2016-10-18T04:48:21.559Z,49
2016-10-18T04:49:02.268Z,49.58
2016-10-18T04:49:43.007Z,49.19
2016-10-18T04:50:23.644Z,49.49
2016-10-18T04:51:04.351Z,49.39
2016-10-18T04:51:45.028Z,49.19
2016-10-18T04:52:25.699Z,49.29
2016-10-18T04:53:06.371Z,49.77
2016-10-18T04:53:47.027Z,49.39
2016-10-18T04:54:27.701Z,49.68
2016-10-18T04:55:08.417Z,49.68
2016-10-18T04:55:49.086Z,49.49
2016-10-18T04:56:29.784Z,49.68
2016-10-18T04:57:10.527Z,49.68
2016-10-18T04:57:51.208Z,49.49
2016-10-18T04:58:31.958Z,49.29
2016-10-18T04:59:12.632Z,49.77
2016-10-18T04:59:53.337Z,49.39
2016-10-18T05:00:34.023Z,49.39
2016-10-18T05:01:14.739Z,49.49
2016-10-18T05:01:55.419Z,49.29
2016-10-18T05:02:36.173Z,49.68
2016-10-18T05:03:16.835Z,49.68
2016-10-18T05:03:57.542Z,49.39
2016-10-18T05:04:38.186Z,49.68
2016-10-18T05:05:18.854Z,49.1
2016-10-18T05:05:59.599Z,49.49
2016-10-18T05:06:40.271Z,49.39
2016-10-18T05:07:20.945Z,49.49
2016-10-18T05:08:01.646Z,49.58
2016-10-18T05:08:42.316Z,49.58
2016-10-18T05:09:23.023Z,49.49
2016-10-18T05:10:03.722Z,49.58
2016-10-18T05:10:44.414Z,49.39
2016-10-18T05:11:25.097Z,49.49
2016-10-18T05:12:05.789Z,49.58
2016-10-18T05:12:46.457Z,49.49
2016-10-18T05:13:27.129Z,49.49
2016-10-18T05:14:07.808Z,49.49
2016-10-18T05:14:48.495Z,49.58
2016-10-18T05:15:29.185Z,49.39
2016-10-18T05:16:09.895Z,49.58
2016-10-18T05:16:50.570Z,49.58
2016-10-18T05:17:31.231Z,49.39
2016-10-18T05:18:11.909Z,49.49
2016-10-18T05:18:52.640Z,49.39
2016-10-18T05:19:33.326Z,49.39
2016-10-18T05:20:14.011Z,49.58
2016-10-18T05:20:54.670Z,49.58
2016-10-18T05:21:35.353Z,49.19
2016-10-18T05:22:16.027Z,49.68
2016-10-18T05:22:56.680Z,49.49
2016-10-18T05:23:37.373Z,49.39
2016-10-18T05:24:18.063Z,49.58
2016-10-18T05:24:58.776Z,49.58
2016-10-18T05:25:39.405Z,49.49
2016-10-18T05:26:20.126Z,49.39
2016-10-18T05:27:00.844Z,49.68
2016-10-18T05:27:41.524Z,49.58
2016-10-18T05:28:22.164Z,49.19
2016-10-18T05:29:02.911Z,49.29
2016-10-18T05:29:43.576Z,49.39
2016-10-18T05:30:24.265Z,49.29
2016-10-18T05:31:04.934Z,49
2016-10-18T05:31:45.621Z,49.51
2016-10-18T05:32:26.308Z,49.49
2016-10-18T05:33:06.998Z,49.49
2016-10-18T05:33:47.672Z,49.39
2016-10-18T05:34:28.354Z,49.49
2016-10-18T05:35:09.028Z,49.58
2016-10-18T05:35:49.752Z,49.29
2016-10-18T05:36:30.413Z,49.39
2016-10-18T05:37:11.115Z,49.49
2016-10-18T05:37:51.807Z,49.41
2016-10-18T05:38:32.472Z,49.39
2016-10-18T05:39:13.177Z,49.58
2016-10-18T05:39:53.829Z,49.39
2016-10-18T05:40:34.486Z,49.58
2016-10-18T05:41:15.164Z,49.29
2016-10-18T05:41:55.839Z,49.39
2016-10-18T05:42:36.540Z,49.41
2016-10-18T05:43:17.236Z,49.49
2016-10-18T05:43:57.924Z,49.39
2016-10-18T05:44:38.643Z,49.49
2016-10-18T05:45:19.291Z,49.39
2016-10-18T05:45:59.966Z,49.68
2016-10-18T05:46:40.612Z,49.68
2016-10-18T05:47:21.316Z,49.49
2016-10-18T05:48:02.017Z,49.49
2016-10-18T05:48:42.695Z,49.87
2016-10-18T05:49:23.338Z,49.49
2016-10-18T05:50:04.048Z,49.51
2016-10-18T05:50:44.724Z,49.87
2016-10-18T05:51:25.362Z,49.87
2016-10-18T05:52:06.063Z,49.8
2016-10-18T05:52:46.759Z,49.49
2016-10-18T05:53:27.475Z,49.49
2016-10-18T05:54:08.182Z,49.49
2016-10-18T05:54:48.890Z,49.49
2016-10-18T05:55:30.054Z,49.58
2016-10-18T05:56:10.261Z,49.49
2016-10-18T05:56:51.004Z,49.97
2016-10-18T05:57:31.702Z,49.97
2016-10-18T05:58:12.415Z,50.09
2016-10-18T05:58:53.128Z,49.97
2016-10-18T05:59:33.826Z,49.99
2016-10-18T06:00:14.507Z,50.07
2016-10-18T06:00:55.185Z,49.9
2016-10-18T06:01:35.844Z,49.8
2016-10-18T06:02:16.748Z,49.87
2016-10-18T06:02:57.346Z,49.9
2016-10-18T06:03:38.148Z,49.49
2016-10-18T06:04:18.902Z,49.51
2016-10-18T06:04:59.616Z,49.77
2016-10-18T06:05:40.305Z,49.77
2016-10-18T06:06:20.979Z,49.49
2016-10-18T06:07:01.667Z,49.61
2016-10-18T06:07:42.373Z,49.71
2016-10-18T06:08:23.066Z,49.77
2016-10-18T06:09:03.799Z,49.87
2016-10-18T06:09:44.544Z,49.77
2016-10-18T06:10:25.239Z,49.87
2016-10-18T06:11:05.966Z,49.8
2016-10-18T06:11:46.595Z,49.77
2016-10-18T06:12:27.272Z,49.77
2016-10-18T06:13:07.960Z,49.9
2016-10-18T06:13:48.666Z,49.77
2016-10-18T06:14:29.354Z,49.9
2016-10-18T06:15:10.573Z,49.71
2016-10-18T06:15:51.247Z,49.29
2016-10-18T06:16:31.974Z,49.97
2016-10-18T06:17:12.672Z,49.58
2016-10-18T06:17:53.397Z,49.58
2016-10-18T06:18:34.168Z,50.04
2016-10-18T06:19:14.826Z,50.24
2016-10-18T06:19:55.524Z,50.34
2016-10-18T06:20:36.224Z,50.34
2016-10-18T06:21:16.960Z,50.14
2016-10-18T06:21:58.272Z,50.89
2016-10-18T06:22:39.024Z,50.12
2016-10-18T06:23:19.690Z,49.44
2016-10-18T06:24:00.402Z,48.76
2016-10-18T06:24:41.040Z,48.74
2016-10-18T06:25:21.744Z,49.32
2016-10-18T06:26:02.472Z,49.19
2016-10-18T06:26:43.177Z,49.75
2016-10-18T06:27:23.852Z,49.95
2016-10-18T06:28:04.549Z,49.82
2016-10-18T06:28:45.214Z,49.24
2016-10-18T06:29:26.571Z,49.82
2016-10-18T06:30:06.589Z,48.83
2016-10-18T06:30:47.283Z,48.64
2016-10-18T06:31:27.976Z,48.54
2016-10-18T06:32:08.700Z,48.06
2016-10-18T06:32:49.384Z,48.16
2016-10-18T06:33:30.102Z,47.96
2016-10-18T06:34:10.790Z,47.67
2016-10-18T06:34:51.465Z,47.77
2016-10-18T06:35:32.166Z,47.55
2016-10-18T06:36:12.859Z,47.58
2016-10-18T06:36:53.537Z,47.58
2016-10-18T06:37:34.227Z,48.16
2016-10-18T06:38:14.975Z,48.54
2016-10-18T06:38:55.644Z,48.54
2016-10-18T06:39:36.378Z,48.35
2016-10-18T06:40:17.090Z,49
2016-10-18T06:40:57.761Z,49.29
2016-10-18T06:41:38.478Z,49.97
2016-10-18T06:42:19.152Z,49.17
2016-10-18T06:42:59.884Z,50.26
2016-10-18T06:43:40.563Z,50.16
2016-10-18T06:44:21.291Z,50.04
2016-10-18T06:45:01.959Z,50.45
2016-10-18T06:45:42.615Z,50.16
2016-10-18T06:46:23.316Z,49.97
2016-10-18T06:47:04.000Z,50.16
2016-10-18T06:47:44.696Z,49.58
2016-10-18T06:48:25.430Z,49.49
2016-10-18T06:49:06.129Z,49.75
2016-10-18T06:49:46.873Z,49.55
2016-10-18T06:50:27.536Z,49.46
2016-10-18T06:51:08.282Z,49
2016-10-18T06:51:48.968Z,48.71
2016-10-18T06:52:29.688Z,48.16
2016-10-18T06:53:11.302Z,47.96
2016-10-18T06:53:52.011Z,48.03
2016-10-18T06:54:32.690Z,47.84
2016-10-18T06:55:13.355Z,48.3
2016-10-18T06:55:54.082Z,47.84
2016-10-18T06:56:34.780Z,47.91
2016-10-18T06:57:15.465Z,47.36
2016-10-18T06:57:56.171Z,46.68
2016-10-18T06:58:36.825Z,48.13
2016-10-18T06:59:18.202Z,48.32
2016-10-18T06:59:58.904Z,50.26
2016-10-18T07:00:39.540Z,49.97
2016-10-18T07:01:20.224Z,51.23
2016-10-18T07:02:00.937Z,50.35
2016-10-18T07:02:41.635Z,51.13
2016-10-18T07:03:22.342Z,52.19
2016-10-18T07:04:03.050Z,52.19
2016-10-18T07:04:43.764Z,51.9
2016-10-18T07:05:24.442Z,52.19
2016-10-18T07:06:05.163Z,52.48
2016-10-18T07:06:45.861Z,52.09
2016-10-18T07:07:26.591Z,52.29
2016-10-18T07:08:07.314Z,52
2016-10-18T07:08:48.054Z,51.51
2016-10-18T07:09:28.736Z,51.9
2016-10-18T07:10:09.470Z,52.09
2016-10-18T07:10:50.124Z,51.44
2016-10-18T07:11:30.790Z,51.06
2016-10-18T07:12:11.509Z,51.23
2016-10-18T07:12:52.182Z,50.96
2016-10-18T07:13:32.884Z,51.32
2016-10-18T07:14:13.639Z,51.32
2016-10-18T07:14:54.333Z,51.32
2016-10-18T07:15:35.002Z,50.84
2016-10-18T07:16:15.709Z,50.74
2016-10-18T07:16:56.372Z,51.23
2016-10-18T07:17:37.080Z,50.35
2016-10-18T07:18:17.810Z,50.45
2016-10-18T07:18:58.497Z,49.97
2016-10-18T07:19:39.245Z,50.52
2016-10-18T07:20:19.967Z,50.23
2016-10-18T07:21:00.651Z,49.65
2016-10-18T07:21:41.328Z,49.39
2016-10-18T07:22:22.024Z,49.07
2016-10-18T07:23:02.715Z,48.79
2016-10-18T07:23:43.385Z,48.97
2016-10-18T07:24:24.149Z,48.49
2016-10-18T07:25:04.826Z,48.97
2016-10-18T07:25:45.527Z,48.79
2016-10-18T07:26:26.232Z,48.59
2016-10-18T07:27:06.945Z,47.81
2016-10-18T07:27:47.632Z,48.21
2016-10-18T07:28:28.272Z,47.81
2016-10-18T07:29:08.947Z,48.01
2016-10-18T07:29:49.633Z,48.01
2016-10-18T07:30:30.306Z,48.21
2016-10-18T07:31:11.959Z,47.81
2016-10-18T07:31:52.629Z,47.72
2016-10-18T07:32:33.327Z,47.72
2016-10-18T07:33:13.999Z,46.95
2016-10-18T07:33:54.690Z,47.63
2016-10-18T07:34:35.385Z,47.72
2016-10-18T07:35:16.070Z,46.95
2016-10-18T07:35:56.778Z,47.05
2016-10-18T07:36:37.479Z,46.95
2016-10-18T07:37:19.097Z,47.72
2016-10-18T07:37:59.855Z,47.14
2016-10-18T07:38:40.607Z,46.37
2016-10-18T07:39:21.379Z,46.2
2016-10-18T07:40:02.042Z,46.1
2016-10-18T07:40:42.775Z,46.08
2016-10-18T07:41:23.458Z,46.1
2016-10-18T07:42:04.185Z,46.17
2016-10-18T07:42:44.858Z,46.56
2016-10-18T07:43:25.514Z,46.17
2016-10-18T07:44:06.221Z,46.27
2016-10-18T07:44:46.910Z,46.37
2016-10-18T07:45:27.627Z,45.79
2016-10-18T07:46:08.285Z,45.5
2016-10-18T07:46:48.967Z,45.5
2016-10-18T07:47:29.716Z,45.04
2016-10-18T07:48:10.371Z,45.21
2016-10-18T07:48:51.108Z,45.14
2016-10-18T07:49:31.777Z,45.52
2016-10-18T07:50:12.503Z,45.14
2016-10-18T07:50:53.173Z,45.23
2016-10-18T07:51:33.909Z,45.42
2016-10-18T07:52:14.567Z,44.73
2016-10-18T07:52:55.255Z,45.4
2016-10-18T07:53:36.609Z,45.21
2016-10-18T07:54:16.613Z,45.21
2016-10-18T07:54:57.292Z,45.21
2016-10-18T07:55:37.982Z,44.53
2016-10-18T07:56:18.682Z,44.43
2016-10-18T07:56:59.338Z,45.14
2016-10-18T07:57:40.034Z,44.94
2016-10-18T07:58:21.602Z,45.01
2016-10-18T07:59:01.401Z,45.21
2016-10-18T07:59:42.101Z,45.4
2016-10-18T08:00:22.807Z,45.11
2016-10-18T08:01:03.526Z,45.09
2016-10-18T08:01:44.789Z,45.67
2016-10-18T08:02:25.472Z,45.38
2016-10-18T08:03:06.166Z,45.48
2016-10-18T08:03:46.901Z,45.28
2016-10-18T08:04:27.603Z,45.69
2016-10-18T08:05:08.310Z,46.17
2016-10-18T08:05:48.987Z,45.21
2016-10-18T08:06:29.667Z,46.56
2016-10-18T08:07:10.353Z,46.27
2016-10-18T08:07:51.044Z,47.7
2016-10-18T08:08:31.693Z,46.37
2016-10-18T08:09:12.381Z,45.31
2016-10-18T08:09:53.103Z,45.4
2016-10-18T08:10:33.815Z,46.37
2016-10-18T08:11:14.528Z,45.69
2016-10-18T08:11:56.598Z,46.27
2016-10-18T08:12:37.300Z,46.17
2016-10-18T08:13:17.982Z,46.27
2016-10-18T08:13:58.693Z,46.17
2016-10-18T08:14:40.108Z,46.08
2016-10-18T08:15:20.095Z,46.08
2016-10-18T08:16:00.769Z,46.17
2016-10-18T08:16:41.548Z,46.08
2016-10-18T08:17:22.410Z,46.08
2016-10-18T08:18:03.191Z,46.08
2016-10-18T08:18:43.956Z,46.08
2016-10-18T08:19:25.609Z,45.89
2016-10-18T08:20:05.379Z,46.27
2016-10-18T08:20:46.075Z,45.69
2016-10-18T08:21:26.772Z,45.31
2016-10-18T08:22:07.436Z,45.33
2016-10-18T08:22:48.193Z,45.14
2016-10-18T08:23:28.877Z,45.14
2016-10-18T08:24:09.591Z,45.33
2016-10-18T08:24:50.426Z,45.04
2016-10-18T08:25:31.135Z,45.25
2016-10-18T08:26:11.868Z,45.25
2016-10-18T08:26:52.652Z,45.25
2016-10-18T08:27:34.369Z,45.45
2016-10-18T08:28:15.119Z,45.16
2016-10-18T08:28:55.792Z,44.87
2016-10-18T08:29:36.496Z,44.67
2016-10-18T08:30:17.269Z,45.16
2016-10-18T08:30:57.986Z,45.25
2016-10-18T08:31:38.640Z,45.25
2016-10-18T08:32:19.316Z,45.35
2016-10-18T08:33:00.010Z,44.77
2016-10-18T08:33:40.712Z,44.6
2016-10-18T08:34:21.370Z,45.35
2016-10-18T08:35:02.026Z,45.66
2016-10-18T08:35:42.742Z,45.37
2016-10-18T08:36:23.450Z,45.37
2016-10-18T08:37:04.789Z,45.37
2016-10-18T08:37:45.512Z,45.37
2016-10-18T08:38:26.236Z,45.18
2016-10-18T08:39:06.966Z,45.57
2016-10-18T08:39:47.661Z,45.37
2016-10-18T08:40:29.122Z,45.47
2016-10-18T08:41:09.112Z,45.57
2016-10-18T08:41:49.782Z,44.89
2016-10-18T08:42:30.524Z,44.89
2016-10-18T08:43:11.282Z,45.28
2016-10-18T08:43:52.002Z,45.08
2016-10-18T08:44:32.751Z,45.28
2016-10-18T08:45:13.414Z,45.37
2016-10-18T08:45:54.119Z,45.4
2016-10-18T08:46:34.851Z,45.3
2016-10-18T08:47:15.553Z,45.3